Aviation Digital Data Service (ADDS)

Output produced by METARs form (1236 UTC 26 February 2017)
found at http://aviationweather.gov/adds/metars/
 
KEWN 261124Z 2612/2712 32007KT P6SM SKC 
     FM262300 VRB02KT P6SM FEW200